createdAt,value
2017-12-05T00:00:13.390Z,39.60
2017-12-05T00:01:16.611Z,44.40
2017-12-05T00:02:19.547Z,43.40
2017-12-05T00:03:22.754Z,35.40
2017-12-05T00:04:25.717Z,43.80
2017-12-05T00:05:28.685Z,40.00
2017-12-05T00:06:31.639Z,38.80
2017-12-05T00:07:34.599Z,37.00
2017-12-05T00:08:37.514Z,36.20
2017-12-05T00:09:40.758Z,37.20
2017-12-05T00:10:44.201Z,51.20
2017-12-05T00:11:47.309Z,45.00
2017-12-05T00:12:50.296Z,36.00
2017-12-05T00:13:53.306Z,35.00
2017-12-05T00:14:56.387Z,43.50
2017-12-05T00:15:59.603Z,40.00
2017-12-05T00:17:03.068Z,36.40
2017-12-05T00:18:06.484Z,54.00
2017-12-05T00:19:11.041Z,45.75
2017-12-05T00:20:14.845Z,55.00
2017-12-05T00:21:18.162Z,49.40
2017-12-05T00:22:22.428Z,55.00
2017-12-05T00:23:25.775Z,51.00
2017-12-05T00:24:28.984Z,59.00
2017-12-05T00:25:31.963Z,45.80
2017-12-05T00:26:35.242Z,58.80
2017-12-05T00:27:39.100Z,36.00
2017-12-05T00:28:43.742Z,55.80
2017-12-05T00:29:47.076Z,53.50
2017-12-05T00:30:50.064Z,42.00
2017-12-05T00:31:52.962Z,36.80
2017-12-05T00:32:55.949Z,38.60
2017-12-05T00:33:58.971Z,37.00
2017-12-05T00:35:02.239Z,38.50
2017-12-05T00:36:05.283Z,35.20
2017-12-05T00:37:08.335Z,36.50
2017-12-05T00:38:11.361Z,34.40
2017-12-05T00:39:14.713Z,37.40
2017-12-05T00:42:46.441Z,42.50
2017-12-05T00:43:49.810Z,35.25
2017-12-05T00:44:52.843Z,36.00
2017-12-05T00:45:56.819Z,34.00
2017-12-05T00:47:00.201Z,34.40
2017-12-05T00:48:03.909Z,34.00
2017-12-05T00:49:07.915Z,37.00
2017-12-05T00:50:11.377Z,35.00
2017-12-05T00:51:14.942Z,35.00
2017-12-05T00:52:17.939Z,34.00
2017-12-05T00:53:20.925Z,37.00
2017-12-05T00:54:23.891Z,37.00
2017-12-05T00:55:27.173Z,34.50
2017-12-05T00:56:30.139Z,33.20
2017-12-05T00:57:33.139Z,34.00
2017-12-05T00:58:36.144Z,31.00
2017-12-05T00:59:39.132Z,34.00
2017-12-05T01:00:42.501Z,36.20
2017-12-05T01:01:46.099Z,34.60
2017-12-05T01:02:49.108Z,35.00
2017-12-05T01:03:52.127Z,34.00
2017-12-05T01:04:55.105Z,36.00
2017-12-05T01:05:58.119Z,35.00
2017-12-05T01:07:01.090Z,32.00
2017-12-05T01:08:04.412Z,34.60
2017-12-05T01:09:07.449Z,33.20
2017-12-05T01:10:10.457Z,32.80
2017-12-05T01:11:13.421Z,29.80
2017-12-05T01:12:16.489Z,34.00
2017-12-05T01:13:19.513Z,34.80
2017-12-05T01:14:22.915Z,37.00
2017-12-05T01:15:25.975Z,37.00
2017-12-05T01:16:29.076Z,34.00
2017-12-05T01:17:33.006Z,33.20
2017-12-05T01:18:36.064Z,36.80
2017-12-05T01:19:39.056Z,33.40
2017-12-05T01:20:42.340Z,34.60
2017-12-05T01:21:45.287Z,36.60
2017-12-05T01:22:48.272Z,35.80
2017-12-05T01:23:51.243Z,37.80
2017-12-05T01:24:54.203Z,31.50
2017-12-05T01:25:57.164Z,32.00
2017-12-05T01:27:00.715Z,34.50
2017-12-05T01:28:03.749Z,36.20
2017-12-05T01:29:06.767Z,38.00
2017-12-05T01:30:09.824Z,38.60
2017-12-05T01:31:12.736Z,36.80
2017-12-05T01:32:15.680Z,36.00
2017-12-05T01:33:18.989Z,36.60
2017-12-05T01:34:21.859Z,34.80
2017-12-05T01:35:24.781Z,36.00
2017-12-05T01:36:27.693Z,36.00
2017-12-05T01:37:30.667Z,36.00
2017-12-05T01:38:34.541Z,35.20
2017-12-05T01:39:37.422Z,36.25
2017-12-05T01:40:40.336Z,36.40
2017-12-05T01:41:43.293Z,36.40
2017-12-05T01:42:46.288Z,36.00
2017-12-05T01:43:49.295Z,34.00
2017-12-05T01:44:52.312Z,33.40
2017-12-05T01:45:55.552Z,38.00
2017-12-05T01:46:58.667Z,35.60
2017-12-05T01:48:01.558Z,36.00
2017-12-05T01:49:04.443Z,34.20
2017-12-05T01:50:07.352Z,35.60
2017-12-05T01:51:10.261Z,38.00
2017-12-05T01:52:13.541Z,37.20
2017-12-05T01:53:16.667Z,39.40
2017-12-05T01:59:19.237Z,41.00
2017-12-05T02:00:22.094Z,36.00
2017-12-05T02:01:25.042Z,38.40
2017-12-05T02:02:27.961Z,37.00
2017-12-05T02:03:30.939Z,34.20
2017-12-05T02:04:34.064Z,34.80
2017-12-05T02:05:37.493Z,35.50
2017-12-05T02:06:40.455Z,32.00
2017-12-05T02:07:43.439Z,36.20
2017-12-05T02:08:46.421Z,37.00
2017-12-05T02:09:49.373Z,39.40
2017-12-05T02:10:52.433Z,37.00
2017-12-05T02:11:55.715Z,35.80
2017-12-05T02:12:58.639Z,36.00
2017-12-05T02:14:01.675Z,35.00
2017-12-05T02:15:04.650Z,33.00
2017-12-05T02:16:07.654Z,33.00
2017-12-05T02:17:10.546Z,36.00
2017-12-05T02:18:13.998Z,36.00
2017-12-05T02:19:17.045Z,33.75
2017-12-05T02:20:20.034Z,37.00
2017-12-05T02:21:23.190Z,37.40
2017-12-05T02:22:26.162Z,36.00
2017-12-05T02:23:29.144Z,35.20
2017-12-05T02:24:32.570Z,36.75
2017-12-05T02:25:35.483Z,31.00
2017-12-05T02:26:38.467Z,35.60
2017-12-05T02:27:41.427Z,34.00
2017-12-05T02:28:44.378Z,37.20
2017-12-05T02:29:47.346Z,35.75
2017-12-05T02:30:50.607Z,36.00
2017-12-05T02:31:53.526Z,34.60
2017-12-05T02:32:56.484Z,34.40
2017-12-05T02:33:59.467Z,34.00
2017-12-05T02:35:02.403Z,31.00
2017-12-05T02:36:05.397Z,33.00
2017-12-05T02:37:08.594Z,35.00
2017-12-05T02:38:11.520Z,35.00
2017-12-05T02:39:14.546Z,32.20
2017-12-05T02:40:17.516Z,34.20
2017-12-05T02:41:20.563Z,32.80
2017-12-05T02:42:23.524Z,31.00
2017-12-05T02:43:26.948Z,33.80
2017-12-05T02:44:29.927Z,32.20
2017-12-05T02:45:32.873Z,32.40
2017-12-05T02:46:35.843Z,32.40
2017-12-05T02:47:38.783Z,35.00
2017-12-05T02:48:41.806Z,30.60
2017-12-05T02:49:45.028Z,34.60
2017-12-05T02:50:48.053Z,35.60
2017-12-05T02:51:51.013Z,31.00
2017-12-05T02:52:53.996Z,37.20
2017-12-05T02:53:56.919Z,35.00
2017-12-05T02:54:59.946Z,33.40
2017-12-05T02:56:03.248Z,31.00
2017-12-05T02:57:06.193Z,33.60
2017-12-05T02:58:09.203Z,31.20
2017-12-05T02:59:12.199Z,31.80
2017-12-05T03:00:15.168Z,32.00
2017-12-05T03:01:18.099Z,32.00
2017-12-05T03:02:21.464Z,27.00
2017-12-05T03:03:24.465Z,27.00
2017-12-05T03:04:27.507Z,31.50
2017-12-05T03:05:30.524Z,24.40
2017-12-05T03:06:33.539Z,30.00
2017-12-05T03:07:36.756Z,28.00
2017-12-05T03:08:40.048Z,30.80
2017-12-05T03:09:43.001Z,30.00
2017-12-05T03:10:45.981Z,30.00
2017-12-05T03:11:48.828Z,28.00
2017-12-05T03:12:52.650Z,30.00
2017-12-05T03:13:55.615Z,35.00
2017-12-05T03:14:58.947Z,30.60
2017-12-05T03:16:01.867Z,29.00
2017-12-05T03:17:04.756Z,27.00
2017-12-05T03:18:07.588Z,31.00
2017-12-05T03:19:10.464Z,33.80
2017-12-05T03:20:13.549Z,32.00
2017-12-05T03:21:16.720Z,33.20
2017-12-05T03:22:19.577Z,29.00
2017-12-05T03:23:22.435Z,36.60
2017-12-05T03:24:25.355Z,38.60
2017-12-05T03:25:28.271Z,35.00
2017-12-05T03:26:31.250Z,32.00
2017-12-05T03:27:34.586Z,36.20
2017-12-05T03:28:37.478Z,30.40
2017-12-05T03:29:40.358Z,37.00
2017-12-05T03:30:43.237Z,34.50
2017-12-05T03:31:46.153Z,34.20
2017-12-05T03:32:49.121Z,34.00
2017-12-05T03:33:52.411Z,32.40
2017-12-05T03:34:55.378Z,36.20
2017-12-05T03:35:58.320Z,31.00
2017-12-05T03:37:01.238Z,30.80
2017-12-05T03:38:04.163Z,30.80
2017-12-05T03:39:07.134Z,35.75
2017-12-05T03:40:10.383Z,32.00
2017-12-05T03:41:13.376Z,31.60
2017-12-05T03:42:16.416Z,32.20
2017-12-05T03:43:19.416Z,34.40
2017-12-05T03:44:22.384Z,32.00
2017-12-05T03:45:25.330Z,30.00
2017-12-05T03:46:28.795Z,25.00
2017-12-05T03:47:31.728Z,27.00
2017-12-05T03:48:34.756Z,23.80
2017-12-05T03:49:37.691Z,29.80
2017-12-05T03:50:40.696Z,41.40
2017-12-05T03:51:43.721Z,29.25
2017-12-05T03:52:47.015Z,32.00
2017-12-05T03:53:49.856Z,28.60
2017-12-05T03:54:52.713Z,31.00
2017-12-05T03:55:55.560Z,31.40
2017-12-05T03:56:58.501Z,23.60
2017-12-05T03:58:01.406Z,28.40
2017-12-05T03:59:04.755Z,29.00
2017-12-05T04:00:07.666Z,30.00
2017-12-05T04:01:10.627Z,27.00
2017-12-05T04:02:13.604Z,29.20
2017-12-05T04:04:33.402Z,34.80
2017-12-05T04:05:36.706Z,32.00
2017-12-05T04:06:39.670Z,32.00
2017-12-05T04:07:42.619Z,36.60
2017-12-05T04:08:45.624Z,32.40
2017-12-05T04:09:48.571Z,34.40
2017-12-05T04:10:51.856Z,30.00
2017-12-05T04:11:54.808Z,32.00
2017-12-05T04:12:57.774Z,34.00
2017-12-05T04:14:00.731Z,34.00
2017-12-05T04:15:03.683Z,35.20
2017-12-05T04:16:06.699Z,32.00
2017-12-05T04:17:09.954Z,26.00
2017-12-05T04:18:12.883Z,31.40
2017-12-05T04:19:15.820Z,36.00
2017-12-05T04:20:18.821Z,32.50
2017-12-05T04:21:21.775Z,32.60
2017-12-05T04:22:24.647Z,34.60
2017-12-05T04:23:27.834Z,36.00
2017-12-05T04:24:30.689Z,34.00
2017-12-05T04:25:33.582Z,35.00
2017-12-05T04:26:36.502Z,32.40
2017-12-05T04:27:39.387Z,31.40
2017-12-05T04:28:42.237Z,34.00
2017-12-05T04:29:45.403Z,33.50
2017-12-05T04:30:48.439Z,37.00
2017-12-05T04:31:51.539Z,40.60
2017-12-05T04:32:54.483Z,31.00
2017-12-05T04:33:57.564Z,27.80
2017-12-05T04:35:00.542Z,30.00
2017-12-05T04:36:03.876Z,32.00
2017-12-05T04:37:06.845Z,32.00
2017-12-05T04:38:09.805Z,34.00
2017-12-05T04:39:12.828Z,34.00
2017-12-05T04:40:21.661Z,32.80
2017-12-05T04:41:24.605Z,35.80
2017-12-05T04:42:27.740Z,35.50
2017-12-05T04:43:30.613Z,32.00
2017-12-05T04:44:33.390Z,35.80
2017-12-05T04:46:50.035Z,36.60
2017-12-05T04:47:52.869Z,34.50
2017-12-05T04:48:55.720Z,32.00
2017-12-05T04:49:58.572Z,34.00
2017-12-05T04:51:01.414Z,35.20
2017-12-05T04:52:04.238Z,33.00
2017-12-05T04:53:07.040Z,36.00
2017-12-05T04:54:09.951Z,34.25
2017-12-05T04:55:12.874Z,32.40
2017-12-05T04:56:15.760Z,34.75
2017-12-05T04:57:18.767Z,35.40
2017-12-05T04:58:21.667Z,32.00
2017-12-05T04:59:24.843Z,37.00
2017-12-05T05:00:27.707Z,39.40
2017-12-05T05:01:30.734Z,39.00
2017-12-05T05:02:33.646Z,37.00
2017-12-05T05:03:36.607Z,37.00
2017-12-05T05:04:39.656Z,31.60
2017-12-05T05:05:42.894Z,32.00
2017-12-05T05:06:45.981Z,35.00
2017-12-05T05:07:48.930Z,30.80
2017-12-05T05:08:51.981Z,36.00
2017-12-05T05:09:54.962Z,32.00
2017-12-05T05:10:57.931Z,32.00
2017-12-05T05:12:01.392Z,30.20
2017-12-05T05:13:04.340Z,37.00
2017-12-05T05:14:07.331Z,36.00
2017-12-05T05:15:10.259Z,38.20
2017-12-05T05:16:13.362Z,34.40
2017-12-05T05:17:16.513Z,34.50
2017-12-05T05:18:19.793Z,32.00
2017-12-05T05:19:22.940Z,33.20
2017-12-05T05:20:25.987Z,34.00
2017-12-05T05:21:29.156Z,33.40
2017-12-05T05:22:32.235Z,31.00
2017-12-05T05:23:35.368Z,36.00
2017-12-05T05:24:38.774Z,27.80
2017-12-05T05:25:41.810Z,35.60
2017-12-05T05:26:44.935Z,30.50
2017-12-05T05:27:47.971Z,32.00
2017-12-05T05:28:51.090Z,31.75
2017-12-05T05:29:54.242Z,36.50
2017-12-05T05:30:57.558Z,32.40
2017-12-05T05:32:00.534Z,32.75
2017-12-05T05:33:03.651Z,34.80
2017-12-05T05:34:06.598Z,35.00
2017-12-05T05:35:09.610Z,36.00
2017-12-05T05:36:12.558Z,36.00
2017-12-05T05:37:15.839Z,32.80
2017-12-05T05:38:18.811Z,34.60
2017-12-05T05:39:21.749Z,32.80
2017-12-05T05:40:24.726Z,32.00
2017-12-05T05:41:27.863Z,33.00
2017-12-05T05:42:30.865Z,33.00
2017-12-05T05:43:34.272Z,37.50
2017-12-05T05:44:37.345Z,31.20
2017-12-05T05:45:40.526Z,35.00
2017-12-05T05:46:43.564Z,36.00
2017-12-05T05:47:46.607Z,36.00
2017-12-05T05:48:49.714Z,35.00
2017-12-05T05:49:52.983Z,36.00
2017-12-05T05:50:55.983Z,35.20
2017-12-05T05:51:59.027Z,34.00
2017-12-05T05:53:02.058Z,36.40
2017-12-05T05:54:05.020Z,36.40
2017-12-05T05:55:08.067Z,33.80
2017-12-05T05:56:11.411Z,35.60
2017-12-05T05:57:14.290Z,33.40
2017-12-05T05:58:17.136Z,35.60
2017-12-05T05:59:20.133Z,36.20
2017-12-05T06:00:23.050Z,36.80
2017-12-05T06:01:25.960Z,38.40
2017-12-05T06:02:29.305Z,35.60
2017-12-05T06:03:32.404Z,34.60
2017-12-05T06:04:35.277Z,33.00
2017-12-05T06:05:38.216Z,33.00
2017-12-05T06:06:41.280Z,36.75
2017-12-05T06:07:44.250Z,37.80
2017-12-05T06:08:47.524Z,36.50
2017-12-05T06:09:50.518Z,38.60
2017-12-05T06:10:53.538Z,34.25
2017-12-05T06:11:56.666Z,32.80
2017-12-05T06:12:59.720Z,36.00
2017-12-05T06:14:02.735Z,34.80
2017-12-05T06:15:06.176Z,36.00
2017-12-05T06:16:09.186Z,33.00
2017-12-05T06:17:12.206Z,35.00
2017-12-05T06:18:15.182Z,37.20
2017-12-05T06:19:18.227Z,36.00
2017-12-05T06:20:21.190Z,36.20
2017-12-05T06:21:24.490Z,32.80
2017-12-05T06:22:27.522Z,37.00
2017-12-05T06:23:30.535Z,34.00
2017-12-05T06:24:33.568Z,38.00
2017-12-05T06:25:36.535Z,37.00
2017-12-05T06:26:39.544Z,36.00
2017-12-05T06:27:42.644Z,36.50
2017-12-05T06:28:45.675Z,33.80
2017-12-05T06:29:48.863Z,39.00
2017-12-05T06:30:52.403Z,39.00
2017-12-05T06:31:55.412Z,37.00
2017-12-05T06:32:59.491Z,39.50
2017-12-05T06:34:02.911Z,38.60
2017-12-05T06:35:08.063Z,39.00
2017-12-05T06:36:11.991Z,38.40
2017-12-05T06:37:15.000Z,38.00
2017-12-05T06:38:17.977Z,38.00
2017-12-05T06:39:21.087Z,40.00
2017-12-05T06:40:24.470Z,34.00
2017-12-05T06:41:27.405Z,36.20
2017-12-05T06:42:30.435Z,37.80
2017-12-05T06:43:33.397Z,42.40
2017-12-05T06:44:36.358Z,38.80
2017-12-05T06:45:40.301Z,35.75
2017-12-05T06:46:43.574Z,32.40
2017-12-05T06:47:46.722Z,36.00
2017-12-05T06:48:49.710Z,37.00
2017-12-05T06:49:52.740Z,36.00
2017-12-05T06:50:55.739Z,33.50
2017-12-05T06:51:58.755Z,38.40
2017-12-05T06:53:02.296Z,46.00
2017-12-05T06:54:05.273Z,39.00
2017-12-05T06:55:08.276Z,37.00
2017-12-05T06:56:11.271Z,37.20
2017-12-05T06:57:14.239Z,36.40
2017-12-05T06:58:17.295Z,39.00
2017-12-05T06:59:20.674Z,37.00
2017-12-05T07:00:23.650Z,39.00
2017-12-05T07:01:26.752Z,38.80
2017-12-05T07:02:29.800Z,37.00
2017-12-05T07:03:32.765Z,37.00
2017-12-05T07:04:35.717Z,36.00
2017-12-05T07:05:39.160Z,36.80
2017-12-05T07:06:42.215Z,34.20
2017-12-05T07:07:45.195Z,38.40
2017-12-05T07:08:48.220Z,34.80
2017-12-05T07:09:51.766Z,43.40
2017-12-05T07:10:54.771Z,37.20
2017-12-05T07:11:57.715Z,37.60
2017-12-05T07:13:00.785Z,37.40
2017-12-05T07:14:03.755Z,38.00
2017-12-05T07:15:06.825Z,34.00
2017-12-05T07:16:10.868Z,41.20
2017-12-05T07:17:15.460Z,41.50
2017-12-05T07:18:18.564Z,37.60
2017-12-05T07:19:21.504Z,34.00
2017-12-05T07:20:24.530Z,37.80
2017-12-05T07:21:27.564Z,35.00
2017-12-05T07:22:30.536Z,39.00
2017-12-05T07:23:33.969Z,53.40
2017-12-05T07:24:36.987Z,33.60
2017-12-05T07:25:40.008Z,40.00
2017-12-05T07:26:43.024Z,37.00
2017-12-05T07:27:46.851Z,36.75
2017-12-05T07:28:50.106Z,40.00
2017-12-05T07:29:53.106Z,36.00
2017-12-05T07:30:56.136Z,35.60
2017-12-05T07:31:59.611Z,36.80
2017-12-05T07:33:02.626Z,32.00
2017-12-05T07:34:05.609Z,36.00
2017-12-05T07:35:08.599Z,36.00
2017-12-05T07:36:11.588Z,37.00
2017-12-05T07:37:14.556Z,37.00
2017-12-05T07:38:17.559Z,36.40
2017-12-05T07:39:20.626Z,36.00
2017-12-05T07:40:23.869Z,36.20
2017-12-05T07:41:27.014Z,36.40
2017-12-05T07:42:30.545Z,36.00
2017-12-05T07:43:34.496Z,38.20
2017-12-05T07:44:37.556Z,33.20
2017-12-05T07:45:40.545Z,38.60
2017-12-05T07:46:43.539Z,39.00
2017-12-05T07:47:46.672Z,41.60
2017-12-05T07:48:49.659Z,33.20
2017-12-05T07:49:52.683Z,34.00
2017-12-05T07:50:55.638Z,35.50
2017-12-05T07:51:58.962Z,34.00
2017-12-05T07:53:02.028Z,36.20
2017-12-05T07:54:05.066Z,36.60
2017-12-05T07:55:08.061Z,35.20
2017-12-05T07:56:11.033Z,36.00
2017-12-05T07:57:14.116Z,39.00
2017-12-05T07:58:17.596Z,36.50
2017-12-05T07:59:20.631Z,35.00
2017-12-05T08:00:23.777Z,37.00
2017-12-05T08:01:26.775Z,36.20
2017-12-05T08:02:29.759Z,38.20
2017-12-05T08:03:32.857Z,40.80
2017-12-05T08:04:36.194Z,39.00
2017-12-05T08:05:39.226Z,36.00
2017-12-05T08:06:42.320Z,37.00
2017-12-05T08:07:45.422Z,37.00
2017-12-05T08:08:48.422Z,35.80
2017-12-05T08:09:51.427Z,36.00
2017-12-05T08:10:54.759Z,34.00
2017-12-05T08:11:57.815Z,31.00
2017-12-05T08:13:00.916Z,34.00
2017-12-05T08:14:03.910Z,35.00
2017-12-05T08:15:06.933Z,35.00
2017-12-05T08:16:09.972Z,37.00
2017-12-05T08:17:13.375Z,39.40
2017-12-05T08:18:16.288Z,35.25
2017-12-05T08:19:19.410Z,34.40
2017-12-05T08:20:22.399Z,36.40
2017-12-05T08:21:25.284Z,36.00
2017-12-05T08:22:28.305Z,37.00
2017-12-05T08:23:31.387Z,35.40
2017-12-05T08:24:34.221Z,40.20
2017-12-05T08:25:37.180Z,37.00
2017-12-05T08:26:40.098Z,34.60
2017-12-05T08:27:43.023Z,36.00
2017-12-05T08:28:46.096Z,32.00
2017-12-05T08:29:49.385Z,35.00
2017-12-05T08:30:52.423Z,30.25
2017-12-05T08:31:55.433Z,32.40
2017-12-05T08:32:58.468Z,35.00
2017-12-05T08:34:02.546Z,37.00
2017-12-05T08:35:05.542Z,35.75
2017-12-05T08:36:08.499Z,34.40
2017-12-05T08:37:11.594Z,34.60
2017-12-05T08:38:14.597Z,37.00
2017-12-05T08:39:17.803Z,38.40
2017-12-05T08:40:20.733Z,35.00
2017-12-05T08:41:23.978Z,34.40
2017-12-05T08:42:26.956Z,35.00
2017-12-05T08:43:29.975Z,39.40
2017-12-05T08:44:32.998Z,37.60
2017-12-05T08:45:36.109Z,34.00
2017-12-05T08:46:39.088Z,33.50
2017-12-05T08:47:42.532Z,36.40
2017-12-05T08:48:45.762Z,36.80
2017-12-05T08:49:48.766Z,36.00
2017-12-05T08:50:52.548Z,34.80
2017-12-05T08:51:55.626Z,33.25
2017-12-05T08:52:59.727Z,36.00
2017-12-05T08:54:03.165Z,33.60
2017-12-05T08:55:06.032Z,38.50
2017-12-05T08:56:08.947Z,33.60
2017-12-05T08:57:11.939Z,37.20
2017-12-05T08:58:14.931Z,34.00
2017-12-05T08:59:17.889Z,34.00
2017-12-05T09:00:21.310Z,38.20
2017-12-05T09:01:24.340Z,39.00
2017-12-05T09:02:27.335Z,36.00
2017-12-05T09:03:33.056Z,36.00
2017-12-05T09:04:36.105Z,34.50
2017-12-05T09:05:39.152Z,36.40
2017-12-05T09:06:42.135Z,36.40
2017-12-05T09:07:45.174Z,23.40
2017-12-05T09:08:48.098Z,18.00
2017-12-05T09:09:51.178Z,13.60
2017-12-05T09:10:54.195Z,16.00
2017-12-05T09:11:57.561Z,17.00
2017-12-05T09:13:00.634Z,17.80
2017-12-05T09:14:03.506Z,13.20
2017-12-05T09:15:06.502Z,14.40
2017-12-05T09:16:09.607Z,14.00
2017-12-05T09:17:12.607Z,16.00
2017-12-05T09:18:15.981Z,19.00
2017-12-05T09:19:19.026Z,13.00
2017-12-05T09:20:22.053Z,21.40
2017-12-05T09:21:25.094Z,18.50
2017-12-05T09:22:28.101Z,14.00
2017-12-05T09:24:33.196Z,25.20
2017-12-05T09:25:36.683Z,16.80
2017-12-05T09:26:39.752Z,16.00
2017-12-05T09:28:53.955Z,17.80
2017-12-05T09:29:57.228Z,16.80
2017-12-05T09:31:00.298Z,16.00
2017-12-05T09:32:03.254Z,16.40
2017-12-05T09:33:06.324Z,17.00
2017-12-05T09:34:09.371Z,17.00
2017-12-05T09:35:13.270Z,19.00
2017-12-05T09:36:16.259Z,16.00
2017-12-05T09:37:19.299Z,18.00
2017-12-05T09:38:22.371Z,19.20
2017-12-05T09:39:25.423Z,18.20
2017-12-05T09:40:28.419Z,17.40
2017-12-05T09:41:31.815Z,17.00
2017-12-05T09:42:34.755Z,18.50
2017-12-05T09:43:37.821Z,20.00
2017-12-05T09:44:40.896Z,21.20
2017-12-05T09:45:43.890Z,19.00
2017-12-05T09:46:46.913Z,19.00
2017-12-05T09:47:50.382Z,17.00
2017-12-05T09:48:53.361Z,17.40
2017-12-05T09:49:56.327Z,21.00
2017-12-05T09:50:59.295Z,19.00
2017-12-05T09:52:02.366Z,21.00
2017-12-05T09:53:05.343Z,21.00
2017-12-05T09:54:08.749Z,21.60
2017-12-05T09:55:11.806Z,19.00
2017-12-05T09:56:14.800Z,22.00
2017-12-05T09:57:17.838Z,23.20
2017-12-05T09:58:20.975Z,19.60
2017-12-05T09:59:24.057Z,19.20
2017-12-05T10:00:27.433Z,18.40
2017-12-05T10:01:30.423Z,24.00
2017-12-05T10:02:33.440Z,19.80
2017-12-05T10:03:36.494Z,20.00
2017-12-05T10:04:39.487Z,20.80
2017-12-05T10:05:42.427Z,20.50
2017-12-05T10:06:45.843Z,22.20
2017-12-05T10:07:48.925Z,20.80
2017-12-05T10:08:51.886Z,20.00
2017-12-05T10:09:54.865Z,21.20
2017-12-05T10:10:57.856Z,19.00
2017-12-05T10:12:00.877Z,18.60
2017-12-05T10:13:04.254Z,21.50
2017-12-05T10:14:07.214Z,19.40
2017-12-05T10:15:10.167Z,19.40
2017-12-05T10:16:13.267Z,19.40
2017-12-05T10:17:16.250Z,22.00
2017-12-05T10:18:19.308Z,19.80
2017-12-05T10:19:22.354Z,19.00
2017-12-05T10:20:25.351Z,19.80
2017-12-05T10:21:28.419Z,20.00
2017-12-05T10:22:31.466Z,22.00
2017-12-05T10:23:34.788Z,21.60
2017-12-05T10:24:38.272Z,21.20
2017-12-05T10:25:41.302Z,19.00
2017-12-05T10:26:44.678Z,20.40
2017-12-05T10:27:47.642Z,22.00
2017-12-05T10:28:50.576Z,22.80
2017-12-05T10:29:53.489Z,24.00
2017-12-05T10:30:56.809Z,20.00
2017-12-05T10:31:59.742Z,19.00
2017-12-05T10:33:02.723Z,21.60
2017-12-05T10:34:05.715Z,17.40
2017-12-05T10:35:08.838Z,16.20
2017-12-05T10:36:11.913Z,14.00
2017-12-05T10:37:15.699Z,22.00
2017-12-05T10:38:18.662Z,24.00
2017-12-05T10:39:21.640Z,19.00
2017-12-05T10:40:24.622Z,22.00
2017-12-05T10:41:27.691Z,20.00
2017-12-05T10:42:30.667Z,19.00
2017-12-05T10:43:34.023Z,20.00
2017-12-05T10:44:37.056Z,12.80
2017-12-05T10:45:40.166Z,16.40
2017-12-05T10:46:43.517Z,12.00
2017-12-05T10:47:46.579Z,16.40
2017-12-05T10:48:50.107Z,16.40
2017-12-05T10:49:53.388Z,14.00
2017-12-05T10:50:56.399Z,16.60
2017-12-05T10:52:00.335Z,16.80
2017-12-05T10:53:03.335Z,19.80
2017-12-05T10:54:06.358Z,17.00
2017-12-05T10:55:10.266Z,17.80
2017-12-05T10:56:13.827Z,14.00
2017-12-05T10:57:16.832Z,14.00
2017-12-05T10:58:19.978Z,17.00
2017-12-05T10:59:22.934Z,19.00
2017-12-05T11:00:25.998Z,17.00
2017-12-05T11:01:29.106Z,17.00
2017-12-05T11:02:32.380Z,18.50
2017-12-05T11:03:35.469Z,19.60
2017-12-05T11:04:38.519Z,20.00
2017-12-05T11:05:41.455Z,21.00
2017-12-05T11:06:44.431Z,19.00
2017-12-05T11:07:48.370Z,14.00
2017-12-05T11:08:51.745Z,19.40
2017-12-05T11:09:54.734Z,20.00
2017-12-05T11:10:57.871Z,21.20
2017-12-05T11:12:00.919Z,17.00
2017-12-05T11:13:03.920Z,16.00
2017-12-05T11:14:07.102Z,19.00
2017-12-05T11:15:10.578Z,17.00
2017-12-05T11:16:13.946Z,21.20
2017-12-05T11:17:17.039Z,16.75
2017-12-05T11:18:20.569Z,20.60
2017-12-05T11:19:23.678Z,19.00
2017-12-05T11:20:26.826Z,19.00
2017-12-05T11:21:30.381Z,22.40
2017-12-05T11:22:33.534Z,20.00
2017-12-05T11:23:36.476Z,22.00
2017-12-05T11:24:39.468Z,24.00
2017-12-05T11:25:42.667Z,21.00
2017-12-05T11:26:45.779Z,20.80
2017-12-05T11:27:49.194Z,19.80
2017-12-05T11:28:52.216Z,20.40
2017-12-05T11:29:55.150Z,17.40
2017-12-05T11:30:58.185Z,22.00
2017-12-05T11:32:01.664Z,22.40
2017-12-05T11:33:04.728Z,25.00
2017-12-05T11:34:08.951Z,22.20
2017-12-05T11:35:11.967Z,25.00
2017-12-05T11:36:15.041Z,22.25
2017-12-05T11:37:18.286Z,26.20
2017-12-05T11:38:21.401Z,27.00
2017-12-05T11:39:24.442Z,20.00
2017-12-05T11:40:28.013Z,27.00
2017-12-05T11:41:31.052Z,27.25
2017-12-05T11:42:34.341Z,27.00
2017-12-05T11:43:37.460Z,26.00
2017-12-05T11:44:41.259Z,23.80
2017-12-05T11:45:44.700Z,25.00
2017-12-05T11:46:47.648Z,20.20
2017-12-05T11:47:50.582Z,27.60
2017-12-05T11:48:54.410Z,26.25
2017-12-05T11:50:00.343Z,28.20
2017-12-05T11:51:04.019Z,22.40
2017-12-05T11:52:07.084Z,26.80
2017-12-05T11:53:10.796Z,22.25
2017-12-05T11:54:14.338Z,25.00
2017-12-05T11:55:18.433Z,30.00
2017-12-05T11:56:21.407Z,27.75
2017-12-05T11:57:24.460Z,28.00
2017-12-05T11:58:27.938Z,30.25
2017-12-05T11:59:31.592Z,27.20
2017-12-05T12:00:35.119Z,31.00
2017-12-05T12:01:38.138Z,28.80
2017-12-05T12:02:41.518Z,27.40
2017-12-05T12:03:44.559Z,27.20
2017-12-05T12:04:49.390Z,29.80
2017-12-05T12:05:53.200Z,32.00
2017-12-05T12:06:56.337Z,27.80
2017-12-05T12:07:59.627Z,32.00
2017-12-05T12:09:02.621Z,28.40
2017-12-05T12:10:06.489Z,30.00
2017-12-05T12:11:12.420Z,30.00
2017-12-05T12:12:17.235Z,29.80
2017-12-05T12:13:26.882Z,30.00
2017-12-05T12:14:30.574Z,30.80
2017-12-05T12:15:34.873Z,30.50
2017-12-05T12:16:38.871Z,33.50
2017-12-05T12:17:41.929Z,33.00
2017-12-05T12:18:45.421Z,27.25
2017-12-05T12:19:49.075Z,25.50
2017-12-05T12:20:56.205Z,31.00
2017-12-05T12:21:59.728Z,29.80
2017-12-05T12:23:07.513Z,34.00
2017-12-05T12:24:11.077Z,29.00
2017-12-05T12:25:16.112Z,30.00
2017-12-05T12:26:19.079Z,29.50
2017-12-05T12:27:22.860Z,30.40
2017-12-05T12:28:25.952Z,25.50
2017-12-05T12:29:29.842Z,30.20
2017-12-05T12:30:33.051Z,30.25
2017-12-05T12:31:38.166Z,28.60
2017-12-05T12:32:41.130Z,32.00
2017-12-05T12:33:44.131Z,32.00
2017-12-05T12:34:47.112Z,29.80
2017-12-05T12:35:50.494Z,31.80
2017-12-05T12:36:53.345Z,31.00
2017-12-05T12:37:56.298Z,33.00
2017-12-05T12:38:59.280Z,33.25
2017-12-05T12:40:02.384Z,33.00
2017-12-05T12:41:05.472Z,31.00
2017-12-05T12:42:08.850Z,34.20
2017-12-05T12:43:11.873Z,31.00
2017-12-05T12:44:15.787Z,32.40
2017-12-05T12:45:18.842Z,31.20
2017-12-05T12:46:22.991Z,31.40
2017-12-05T12:47:25.956Z,30.00
2017-12-05T12:48:30.915Z,32.20
2017-12-05T12:49:35.413Z,31.25
2017-12-05T12:50:39.010Z,30.50
2017-12-05T12:51:43.548Z,35.80
2017-12-05T12:52:46.803Z,33.00
2017-12-05T12:53:50.480Z,28.40
2017-12-05T12:55:01.687Z,25.00
2017-12-05T12:56:05.295Z,28.00
2017-12-05T12:57:08.313Z,31.00
2017-12-05T12:58:15.706Z,31.00
2017-12-05T12:59:19.505Z,31.00
2017-12-05T13:00:23.179Z,29.80
2017-12-05T13:01:28.244Z,31.00
2017-12-05T13:02:31.463Z,32.60
2017-12-05T13:03:34.873Z,31.80
2017-12-05T13:04:37.902Z,31.80
2017-12-05T13:05:42.556Z,32.50
2017-12-05T13:06:46.029Z,31.00
2017-12-05T13:07:49.138Z,26.20
2017-12-05T13:08:52.616Z,27.40
2017-12-05T13:09:55.690Z,31.00
2017-12-05T13:10:58.885Z,31.00
2017-12-05T13:12:02.152Z,31.00
2017-12-05T13:13:05.651Z,28.80
2017-12-05T13:14:08.993Z,30.80
2017-12-05T13:15:12.134Z,31.50
2017-12-05T13:16:15.166Z,30.00
2017-12-05T13:17:18.170Z,31.75
2017-12-05T13:18:21.672Z,25.80
2017-12-05T13:19:25.120Z,31.00
2017-12-05T13:20:28.160Z,30.20
2017-12-05T13:21:31.247Z,31.00
2017-12-05T13:22:34.294Z,31.00
2017-12-05T13:23:38.150Z,33.00
2017-12-05T13:24:41.145Z,27.60
2017-12-05T13:25:45.098Z,31.00
2017-12-05T13:26:48.273Z,31.60
2017-12-05T13:27:51.222Z,27.75
2017-12-05T13:28:55.467Z,30.40
2017-12-05T13:29:58.444Z,31.50
2017-12-05T13:31:01.477Z,30.00
2017-12-05T13:32:04.902Z,30.40
2017-12-05T13:33:07.914Z,31.00
2017-12-05T13:34:12.030Z,32.60
2017-12-05T13:35:15.051Z,26.80
2017-12-05T13:36:18.102Z,33.80
2017-12-05T13:37:23.420Z,30.40
2017-12-05T13:38:26.858Z,31.00
2017-12-05T13:39:29.820Z,31.00
2017-12-05T13:40:34.446Z,31.00
2017-12-05T13:41:37.662Z,33.25
2017-12-05T13:42:40.638Z,28.20
2017-12-05T13:43:43.572Z,28.40
2017-12-05T13:44:48.019Z,32.40
2017-12-05T13:45:52.266Z,31.75